Time;durP1;ratioP1;P1;durP2;ratioP2;P2;SDS_P1;SDS_P2;PMS_P1;PMS_P2;Temp;Humidity;BMP_temperature;BMP_pressure;BME280_temperature;BME280_humidity;BME280_pressure;Samples;Min_cycle;Max_cycle;Signal;HPM_P1;HPM_P2
2023/04/01 00:02:35;;;;;;;12.50;6.70;;;;;;;9.26;100.00;98597.52;213767;1288;138605;-85
2023/04/01 00:07:37;;;;;;;12.50;6.00;;;;;;;9.24;100.00;98597.87;214296;1289;138550;-85
2023/04/01 00:12:39;;;;;;;14.00;6.30;;;;;;;9.23;100.00;98599.45;213723;1285;139543;-85
2023/04/01 00:17:39;;;;;;;13.60;6.60;;;;;;;9.20;100.00;98593.67;214152;1289;138712;-85
2023/04/01 00:22:40;;;;;;;11.10;6.40;;;;;;;9.19;100.00;98587.73;213847;1290;138852;-85
2023/04/01 00:27:41;;;;;;;10.90;6.10;;;;;;;9.18;100.00;98586.34;214447;1288;107715;-85
2023/04/01 00:32:41;;;;;;;11.90;6.20;;;;;;;9.17;100.00;98585.25;213798;1290;139464;-86
2023/04/01 00:37:42;;;;;;;11.30;6.40;;;;;;;9.16;100.00;98589.41;214339;1285;139328;-85
2023/04/01 00:42:42;;;;;;;10.40;5.80;;;;;;;9.16;100.00;98583.15;213825;1288;138914;-86
2023/04/01 00:47:43;;;;;;;10.60;6.30;;;;;;;9.17;100.00;98585.25;214401;1288;139296;-85
2023/04/01 00:52:43;;;;;;;11.30;5.90;;;;;;;9.17;100.00;98580.48;213767;1285;138833;-85
2023/04/01 00:57:45;;;;;;;12.70;6.70;;;;;;;9.16;100.00;98577.81;214484;1289;101539;-85
2023/04/01 01:02:47;;;;;;;13.20;7.20;;;;;;;9.14;100.00;98580.27;213954;1289;138913;-85
2023/04/01 01:07:56;;;;;;;12.90;7.80;;;;;;;9.14;100.00;98578.71;214473;1286;139697;-85
2023/04/01 01:13:12;;;;;;;11.20;6.60;;;;;;;9.15;100.00;98568.27;213833;1285;139164;-85
2023/04/01 01:18:31;;;;;;;12.60;6.70;;;;;;;9.14;100.00;98563.88;214361;1285;138711;-86
2023/04/01 01:23:53;;;;;;;14.40;6.80;;;;;;;9.14;100.00;98562.32;213928;1285;138760;-85
2023/04/01 01:29:05;;;;;;;13.40;7.40;;;;;;;9.13;100.00;98565.94;213888;1290;139348;-85
2023/04/01 01:34:22;;;;;;;14.10;7.40;;;;;;;9.12;100.00;98565.41;214419;1285;139493;-86
2023/04/01 01:39:29;;;;;;;12.20;6.70;;;;;;;9.11;100.00;98567.06;213994;1288;138335;-86
2023/04/01 01:44:31;;;;;;;13.00;7.00;;;;;;;9.10;100.00;98565.98;214339;1290;138738;-86
2023/04/01 01:49:35;;;;;;;12.00;6.50;;;;;;;9.07;100.00;98567.42;213706;1285;139229;-86
2023/04/01 01:54:35;;;;;;;13.40;7.40;;;;;;;9.06;100.00;98570.02;214346;1291;138728;-86
2023/04/01 01:59:39;;;;;;;14.10;7.50;;;;;;;9.06;100.00;98569.79;213773;1290;138996;-85
2023/04/01 02:04:44;;;;;;;12.10;6.70;;;;;;;9.07;100.00;98568.06;214348;1286;139157;-86
2023/04/01 02:09:44;;;;;;;13.60;7.70;;;;;;;9.07;100.00;98563.91;213850;1287;139523;-86
2023/04/01 02:15:06;;;;;;;13.20;7.10;;;;;;;9.09;100.00;98563.71;214531;1286;98044;-87
2023/04/01 02:20:17;;;;;;;14.90;7.80;;;;;;;9.08;100.00;98565.14;213727;1286;138787;-86
2023/04/01 02:25:25;;;;;;;16.00;9.10;;;;;;;9.07;100.00;98561.85;214473;1291;139076;-86
2023/04/01 02:30:29;;;;;;;15.20;8.80;;;;;;;9.07;100.00;98560.52;213825;1289;139952;-86
2023/04/01 02:35:29;;;;;;;15.20;9.20;;;;;;;9.06;100.00;98560.70;214428;1291;138689;-86
2023/04/01 02:40:41;;;;;;;14.30;8.40;;;;;;;9.06;100.00;98561.16;213872;1289;138821;-86
2023/04/01 02:45:42;;;;;;;14.80;8.30;;;;;;;9.05;100.00;98558.60;214475;1289;105404;-85
2023/04/01 02:50:43;;;;;;;18.10;9.20;;;;;;;9.04;100.00;98558.13;213936;1289;138396;-86
2023/04/01 02:55:44;;;;;;;14.30;8.30;;;;;;;9.04;100.00;98566.91;214342;1285;138905;-86
2023/04/01 03:00:45;;;;;;;14.60;7.70;;;;;;;9.03;100.00;98568.27;213965;1285;139008;-86
2023/04/01 03:05:45;;;;;;;13.70;8.30;;;;;;;9.02;100.00;98574.86;214568;1289;139626;-85
2023/04/01 03:10:45;;;;;;;13.40;8.30;;;;;;;9.01;100.00;98574.41;214336;1286;139335;-85
2023/04/01 03:15:46;;;;;;;14.60;8.40;;;;;;;9.00;100.00;98579.89;215021;1285;139134;-85
2023/04/01 03:20:46;;;;;;;15.70;8.80;;;;;;;9.00;100.00;98581.40;214586;1291;139659;-86
2023/04/01 03:25:47;;;;;;;16.30;8.30;;;;;;;9.00;100.00;98582.02;214870;1286;138802;-86
2023/04/01 03:30:48;;;;;;;16.80;8.30;;;;;;;9.00;100.00;98574.34;214461;1289;138939;-86
2023/04/01 03:35:51;;;;;;;14.80;7.90;;;;;;;9.01;100.00;98579.50;214931;1288;138958;-86
2023/04/01 03:40:52;;;;;;;13.70;7.60;;;;;;;9.02;100.00;98578.95;213864;1289;139225;-86
2023/04/01 03:45:54;;;;;;;15.50;8.80;;;;;;;9.02;100.00;98579.17;214345;1290;139202;-86
2023/04/01 03:50:55;;;;;;;14.50;8.30;;;;;;;9.01;100.00;98579.66;214155;1290;139269;-85
2023/04/01 03:55:55;;;;;;;15.10;8.30;;;;;;;9.01;100.00;98582.63;214298;1289;138763;-85
2023/04/01 04:00:55;;;;;;;16.60;8.60;;;;;;;9.00;100.00;98588.91;213721;1286;139150;-86
2023/04/01 04:05:56;;;;;;;15.20;8.40;;;;;;;8.99;100.00;98595.60;214422;1291;138894;-86
2023/04/01 04:10:57;;;;;;;16.20;8.70;;;;;;;8.98;100.00;98599.29;213520;1286;218956;-86
2023/04/01 04:15:58;;;;;;;13.00;7.50;;;;;;;8.97;100.00;98599.23;214250;1289;138944;-86
2023/04/01 04:20:58;;;;;;;15.80;8.20;;;;;;;8.94;100.00;98601.99;213983;1286;138546;-86
2023/04/01 04:26:08;;;;;;;13.30;7.70;;;;;;;8.91;100.00;98608.84;214357;1287;138703;-86
2023/04/01 04:31:08;;;;;;;14.50;7.90;;;;;;;8.89;100.00;98618.29;214020;1289;138802;-86
2023/04/01 04:36:09;;;;;;;15.20;8.30;;;;;;;8.84;100.00;98619.20;214386;1286;140123;-86
2023/04/01 04:41:12;;;;;;;14.30;8.70;;;;;;;8.80;100.00;98624.58;213853;1286;139094;-86
2023/04/01 04:46:13;;;;;;;15.80;8.60;;;;;;;8.78;100.00;98622.55;214603;1285;138817;-86
2023/04/01 04:51:18;;;;;;;15.00;8.90;;;;;;;8.79;100.00;98627.32;214155;1289;138422;-86
2023/04/01 04:56:21;;;;;;;17.40;9.40;;;;;;;8.79;100.00;98629.68;214499;1292;138892;-87
2023/04/01 05:01:21;;;;;;;20.40;10.00;;;;;;;8.80;100.00;98625.59;213817;1291;139104;-87
2023/04/01 05:06:22;;;;;;;17.00;9.70;;;;;;;8.80;100.00;98631.94;214785;1289;139136;-87
2023/04/01 05:11:22;;;;;;;19.30;10.50;;;;;;;8.82;100.00;98639.53;214141;1292;139322;-87
2023/04/01 05:16:23;;;;;;;16.90;9.40;;;;;;;8.83;100.00;98642.73;214828;1286;139154;-86
2023/04/01 05:21:23;;;;;;;16.90;9.90;;;;;;;8.84;100.00;98645.30;214270;1289;138563;-86
2023/04/01 05:26:24;;;;;;;16.90;9.80;;;;;;;8.86;100.00;98647.55;214541;1289;138655;-86
2023/04/01 05:31:25;;;;;;;17.40;9.50;;;;;;;8.88;100.00;98649.55;214208;1289;138783;-86
2023/04/01 05:36:25;;;;;;;15.90;9.20;;;;;;;8.92;100.00;98652.89;214892;1290;138758;-86
2023/04/01 05:41:26;;;;;;;17.20;10.40;;;;;;;8.93;100.00;98657.42;214221;1289;139939;-86
2023/04/01 05:46:26;;;;;;;15.10;8.70;;;;;;;8.96;100.00;98661.56;214550;1287;138829;-86
2023/04/01 05:51:27;;;;;;;15.80;8.80;;;;;;;8.98;100.00;98664.35;214250;1295;138622;-86
2023/04/01 05:56:27;;;;;;;13.80;7.90;;;;;;;9.01;100.00;98667.55;214705;1286;138780;-86
2023/04/01 06:01:27;;;;;;;14.30;7.20;;;;;;;9.02;100.00;98668.31;214174;1286;138720;-86
2023/04/01 06:06:30;;;;;;;14.70;7.50;;;;;;;9.02;100.00;98671.52;214793;1289;138940;-86
2023/04/01 06:11:42;;;;;;;12.80;7.80;;;;;;;9.04;100.00;98677.14;214327;1288;138689;-87
2023/04/01 06:17:03;;;;;;;12.50;6.70;;;;;;;9.08;100.00;98680.61;214739;1285;138786;-88
2023/04/01 06:22:49;;;;;;;11.50;6.70;;;;;;;9.11;100.00;98682.39;214065;1286;139203;-86
2023/04/01 06:28:16;;;;;;;13.50;7.20;;;;;;;9.16;100.00;98688.99;214754;1285;139517;-87
2023/04/01 06:33:32;;;;;;;;;;;;;;;9.20;100.00;98688.25;214247;1286;138859;-87
2023/04/01 06:38:57;;;;;;;13.90;6.80;;;;;;;9.22;100.00;98693.26;214508;1285;125923;-87
2023/04/01 06:44:31;;;;;;;15.00;8.20;;;;;;;9.25;100.00;98694.08;214269;1285;138809;-87
2023/04/01 06:49:53;;;;;;;17.70;9.40;;;;;;;9.27;100.00;98700.15;214163;1285;139119;-87
2023/04/01 06:55:01;;;;;;;16.70;9.70;;;;;;;9.32;100.00;98703.40;214637;1287;139502;-87
2023/04/01 07:00:11;;;;;;;22.20;11.30;;;;;;;9.39;100.00;98713.98;214115;1285;138664;-88
2023/04/01 07:05:14;;;;;;;17.50;10.40;;;;;;;9.46;100.00;98716.11;214650;1288;139013;-87
2023/04/01 07:10:24;;;;;;;18.00;10.80;;;;;;;9.51;100.00;98719.58;213942;1287;139274;-87
2023/04/01 07:15:27;;;;;;;13.60;7.80;;;;;;;9.56;100.00;98722.65;214903;1289;98014;-87
2023/04/01 07:20:32;;;;;;;12.40;7.00;;;;;;;9.60;100.00;98730.98;214340;1285;139019;-87
2023/04/01 07:25:40;;;;;;;17.60;9.00;;;;;;;9.64;100.00;98732.04;214684;1286;139629;-87
2023/04/01 07:31:01;;;;;;;18.20;8.80;;;;;;;9.71;100.00;98740.04;213993;1286;139523;-87
2023/04/01 07:36:34;;;;;;;15.40;8.60;;;;;;;9.78;100.00;98742.85;214678;1286;138767;-87
2023/04/01 07:41:51;;;;;;;13.40;7.70;;;;;;;9.86;100.00;98746.84;214108;1285;140770;-87
2023/04/01 07:47:21;;;;;;;12.60;6.50;;;;;;;9.92;100.00;98751.30;214765;1286;141404;-87
2023/04/01 07:52:38;;;;;;;12.70;6.50;;;;;;;9.99;100.00;98758.59;214094;1286;139243;-87
2023/04/01 07:57:47;;;;;;;;;;;;;;;10.05;100.00;98763.33;214684;1285;111252;-87
2023/04/01 08:03:03;;;;;;;14.20;7.00;;;;;;;10.11;100.00;98770.55;214195;1285;125827;-88
2023/04/01 08:08:26;;;;;;;14.10;6.40;;;;;;;10.22;100.00;98778.34;214644;1288;138904;-88
2023/04/01 08:13:42;;;;;;;16.30;7.70;;;;;;;10.32;100.00;98789.58;214516;1287;139205;-87
2023/04/01 08:19:20;;;;;;;13.20;6.70;;;;;;;10.37;100.00;98795.57;215307;1285;138985;-88
2023/04/01 08:24:42;;;;;;;12.80;6.70;;;;;;;10.47;100.00;98803.02;214956;1288;139499;-89
2023/04/01 08:30:01;;;;;;;14.00;7.10;;;;;;;10.48;100.00;98810.16;215476;1285;139300;-89
2023/04/01 08:35:18;;;;;;;14.80;7.70;;;;;;;10.53;100.00;98816.05;215756;1289;139189;-89
2023/04/01 08:40:39;;;;;;;15.50;8.00;;;;;;;10.52;100.00;98815.75;215109;1285;139270;-90
2023/04/01 08:45:44;;;;;;;15.90;7.70;;;;;;;10.47;100.00;98824.16;215634;1288;97936;-89
2023/04/01 08:51:07;;;;;;;16.70;9.20;;;;;;;10.44;100.00;98825.52;214773;1288;139607;-89
2023/04/01 08:56:26;;;;;;;18.60;9.50;;;;;;;10.51;100.00;98832.77;214658;1289;139612;-89
2023/04/01 09:01:47;;;;;;;19.60;9.70;;;;;;;10.58;100.00;98835.88;214429;1288;139200;-89
2023/04/01 09:07:08;;;;;;;18.50;9.00;;;;;;;10.69;100.00;98845.69;214717;1286;139056;-90
2023/04/01 09:12:28;;;;;;;18.30;9.40;;;;;;;10.73;100.00;98849.80;213990;1289;139290;-90
2023/04/01 09:17:38;;;;;;;19.00;9.10;;;;;;;10.74;100.00;98855.91;214665;1287;139053;-90
2023/04/01 09:22:51;;;;;;;18.20;9.50;;;;;;;10.74;100.00;98861.34;214062;1286;139800;-90
2023/04/01 09:28:03;;;;;;;19.60;10.30;;;;;;;10.70;100.00;98872.78;214507;1285;139122;-89
2023/04/01 09:33:03;;;;;;;18.00;9.90;;;;;;;10.55;100.00;98880.17;215744;1285;140321;-90
2023/04/01 09:38:51;;;;;;;22.10;11.30;;;;;;;10.48;100.00;98889.86;217551;1288;139924;-89
2023/04/01 09:44:07;;;;;;;21.70;10.00;;;;;;;10.44;100.00;98894.94;214661;1285;139077;-89
2023/04/01 09:49:30;;;;;;;20.70;10.50;;;;;;;10.35;100.00;98901.58;214179;1285;140255;-90
2023/04/01 09:54:42;;;;;;;19.40;10.10;;;;;;;10.36;100.00;98904.92;214724;1286;140422;-89
2023/04/01 10:00:27;;;;;;;22.40;11.10;;;;;;;10.36;100.00;98917.34;214329;1285;139295;-88
2023/04/01 10:05:48;;;;;;;21.10;9.50;;;;;;;10.29;100.00;98923.63;214814;1285;139724;-89
2023/04/01 10:11:20;;;;;;;21.30;11.20;;;;;;;10.17;100.00;98928.73;213795;1288;140718;-87
2023/04/01 10:16:59;;;;;;;26.00;11.80;;;;;;;10.18;100.00;98937.73;214625;1288;139488;-87
2023/04/01 10:22:30;;;;;;;29.60;14.50;;;;;;;10.10;100.00;98944.20;214290;1288;140446;-88
2023/04/01 10:27:49;;;;;;;27.10;13.70;;;;;;;10.04;100.00;98949.20;215023;1286;99279;-88
2023/04/01 10:33:15;;;;;;;25.70;14.10;;;;;;;10.00;100.00;98955.02;214815;1286;139660;-89
2023/04/01 10:38:52;;;;;;;32.90;15.50;;;;;;;9.93;100.00;98958.47;214666;1285;139686;-87
2023/04/01 10:44:07;;;;;;;25.50;13.40;;;;;;;9.85;100.00;98958.71;214473;1286;140343;-87
2023/04/01 10:49:23;;;;;;;27.70;14.10;;;;;;;9.85;100.00;98961.14;214209;1285;139497;-89
2023/04/01 10:54:46;;;;;;;27.70;13.80;;;;;;;9.94;100.00;98965.63;214651;1288;139392;-87
2023/04/01 11:00:10;;;;;;;22.20;12.40;;;;;;;10.07;100.00;98970.45;214022;1285;141384;-87
2023/04/01 11:05:23;;;;;;;24.10;12.00;;;;;;;10.14;100.00;98976.36;214763;1284;139236;-87
2023/04/01 11:11:00;;;;;;;21.30;10.80;;;;;;;10.24;100.00;98973.41;214173;1285;139525;-87
2023/04/01 11:16:23;;;;;;;20.90;11.30;;;;;;;10.41;100.00;98981.08;214647;1285;139478;-88
2023/04/01 11:21:45;;;;;;;19.50;11.10;;;;;;;10.46;100.00;98984.80;214354;1285;139645;-87
2023/04/01 11:27:30;;;;;;;16.50;9.30;;;;;;;10.40;100.00;98988.32;214740;1285;139097;-86
2023/04/01 11:32:49;;;;;;;18.70;9.00;;;;;;;10.39;100.00;98997.91;214025;1286;139012;-85
2023/04/01 11:37:59;;;;;;;17.50;9.60;;;;;;;10.43;100.00;99004.55;214738;1285;139576;-86
2023/04/01 11:43:33;;;;;;;19.10;9.80;;;;;;;10.37;100.00;99006.19;214106;1285;139284;-87
2023/04/01 11:48:46;;;;;;;19.90;10.40;;;;;;;10.33;100.00;99014.02;214499;1286;139790;-89
2023/04/01 11:54:09;;;;;;;17.70;10.40;;;;;;;10.24;100.00;99021.80;214578;1285;139265;-87
2023/04/01 11:59:19;;;;;;;18.80;10.70;;;;;;;10.11;100.00;99036.77;214398;1285;141285;-86
2023/04/01 12:04:41;;;;;;;18.10;10.30;;;;;;;9.99;100.00;99040.86;214931;1286;139251;-86
2023/04/01 12:10:09;;;;;;;19.50;12.70;;;;;;;9.92;100.00;99050.50;214384;1285;139130;-86
2023/04/01 12:15:40;;;;;;;41.10;27.20;;;;;;;9.91;100.00;99055.77;214919;1286;109467;-87
2023/04/01 12:20:50;;;;;;;25.70;15.40;;;;;;;9.84;100.00;99056.93;213893;1285;139741;-87
2023/04/01 12:26:03;;;;;;;22.30;12.80;;;;;;;9.81;100.00;99064.33;214722;1286;139293;-87
2023/04/01 12:31:40;;;;;;;19.70;13.30;;;;;;;9.72;100.00;99067.93;214265;1285;139472;-87
2023/04/01 12:36:49;;;;;;;14.50;8.20;;;;;;;9.71;100.00;99072.58;214854;1285;139529;-86
2023/04/01 12:42:25;;;;;;;22.40;12.40;;;;;;;9.72;100.00;99080.02;214349;1286;139130;-85
2023/04/01 12:48:00;;;;;;;12.30;6.80;;;;;;;9.72;100.00;99084.02;214552;1285;139684;-86
2023/04/01 12:53:22;;;;;;;12.40;7.80;;;;;;;9.73;100.00;99086.13;214232;1285;139514;-86
2023/04/01 12:58:52;;;;;;;10.80;6.20;;;;;;;9.77;100.00;99097.33;214790;1285;139289;-86
2023/04/01 13:04:05;;;;;;;12.10;6.70;;;;;;;9.86;100.00;99102.06;214463;1286;140011;-87
2023/04/01 13:09:27;;;;;;;10.40;5.90;;;;;;;9.93;100.00;99103.80;214394;1286;139737;-86
2023/04/01 13:14:40;;;;;;;8.90;5.40;;;;;;;9.86;100.00;99107.31;214742;1285;140066;-87
2023/04/01 13:19:57;;;;;;;8.40;5.20;;;;;;;9.84;100.00;99114.16;214329;1285;139806;-85
2023/04/01 13:25:16;;;;;;;10.70;5.60;;;;;;;9.76;100.00;99120.34;215388;1285;140763;-85
2023/04/01 13:30:29;;;;;;;10.50;6.00;;;;;;;9.65;100.00;99131.16;214067;1285;140048;-87
2023/04/01 13:35:58;;;;;;;9.40;5.20;;;;;;;9.59;100.00;99132.77;214806;1285;139151;-88
2023/04/01 13:41:37;;;;;;;8.70;5.20;;;;;;;9.57;100.00;99134.42;214456;1285;139236;-86
2023/04/01 13:46:53;;;;;;;12.70;7.00;;;;;;;9.49;100.00;99139.65;214829;1289;138459;-87
2023/04/01 13:52:15;;;;;;;14.00;7.70;;;;;;;9.49;100.00;99136.52;214283;1285;138698;-86
2023/04/01 13:57:24;;;;;;;11.10;6.20;;;;;;;9.49;100.00;99135.56;215281;1285;105756;-88
2023/04/01 14:02:44;;;;;;;9.60;6.30;;;;;;;9.60;100.00;99133.61;214812;1285;138761;-88
2023/04/01 14:08:03;;;;;;;12.70;6.90;;;;;;;9.76;100.00;99139.96;215157;1289;138484;-89
2023/04/01 14:13:26;;;;;;;11.30;6.90;;;;;;;9.71;100.00;99143.84;214193;1286;139312;-89
2023/04/01 14:18:35;;;;;;;12.50;8.10;;;;;;;9.63;100.00;99153.23;214717;1285;138875;-89
2023/04/01 14:23:59;;;;;;;12.50;6.70;;;;;;;9.64;100.00;99158.01;214142;1285;139523;-89
2023/04/01 14:29:18;;;;;;;11.10;7.40;;;;;;;9.61;100.00;99166.58;214140;1285;139268;-88
2023/04/01 14:34:50;;;;;;;13.10;7.90;;;;;;;9.65;100.00;99168.28;214597;1285;139496;-88
2023/04/01 14:40:27;;;;;;;12.00;6.60;;;;;;;9.62;100.00;99177.33;214514;1285;139490;-88
2023/04/01 14:45:56;;;;;;;10.10;6.40;;;;;;;9.61;100.00;99181.02;214954;1285;97883;-88
2023/04/01 14:51:09;;;;;;;10.70;6.70;;;;;;;9.60;100.00;99187.23;214274;1289;139428;-88
2023/04/01 14:56:09;;;;;;;12.60;7.90;;;;;;;9.61;100.00;99190.98;214841;1289;138695;-89
2023/04/01 15:01:42;;;;;;;35.50;26.20;;;;;;;9.58;100.00;99202.22;214125;1287;140830;-89
2023/04/01 15:07:20;;;;;;;13.20;8.80;;;;;;;9.55;100.00;99206.39;214612;1285;138829;-90
2023/04/01 15:12:37;;;;;;;10.90;6.70;;;;;;;9.46;100.00;99216.09;214115;1285;139557;-89
2023/04/01 15:17:52;;;;;;;10.30;5.80;;;;;;;9.42;100.00;99228.34;215231;1285;138943;-90
2023/04/01 15:23:16;;;;;;;9.30;5.60;;;;;;;9.34;100.00;99237.39;214417;1286;138947;-90
2023/04/01 15:28:23;;;;;;;10.40;5.70;;;;;;;9.29;100.00;99238.50;214732;1289;138654;-88
2023/04/01 15:33:23;;;;;;;;;;;;;;;9.28;100.00;99246.42;214578;1285;139474;-89
2023/04/01 15:38:52;;;;;;;8.20;4.40;;;;;;;9.24;100.00;99250.82;214814;1285;125167;-91
2023/04/01 15:43:53;;;;;;;8.80;4.80;;;;;;;9.12;100.00;99261.59;214570;1285;138784;-88
2023/04/01 15:49:28;;;;;;;9.20;4.60;;;;;;;9.00;100.00;99268.52;214217;1288;138521;-90
2023/04/01 15:54:57;;;;;;;9.70;5.40;;;;;;;8.97;100.00;99279.42;214975;1288;138958;-88
2023/04/01 16:00:23;;;;;;;8.10;4.70;;;;;;;8.96;100.00;99286.16;214415;1285;140626;-88
2023/04/01 16:05:58;;;;;;;12.40;8.00;;;;;;;8.96;100.00;99294.31;215072;1285;138910;-88
2023/04/01 16:11:23;;;;;;;14.50;8.40;;;;;;;8.89;100.00;99301.75;214223;1285;151963;-89
2023/04/01 16:16:42;;;;;;;12.00;6.70;;;;;;;8.79;100.00;99313.29;214878;1285;138948;-86
2023/04/01 16:21:48;;;;;;;10.90;5.80;;;;;;;8.75;100.00;99321.29;214658;1285;139461;-87
2023/04/01 16:27:05;;;;;;;13.60;6.10;;;;;;;8.70;100.00;99330.52;214868;1285;139060;-87
2023/04/01 16:32:33;;;;;;;11.10;6.40;;;;;;;8.63;100.00;99337.17;214793;1288;139399;-88
2023/04/01 16:37:44;;;;;;;11.00;6.30;;;;;;;8.58;100.00;99351.98;215042;1285;139162;-87
2023/04/01 16:42:53;;;;;;;12.50;6.60;;;;;;;8.46;100.00;99361.52;215447;1285;140303;-87
2023/04/01 16:48:06;;;;;;;11.20;6.60;;;;;;;8.37;100.00;99373.40;216336;1287;139010;-87
2023/04/01 16:53:21;;;;;;;12.00;6.70;;;;;;;8.27;100.00;99385.04;215573;1285;139773;-87
2023/04/01 16:58:27;;;;;;;12.10;6.70;;;;;;;8.20;100.00;99393.45;215606;1286;139318;-88
2023/04/01 17:03:40;;;;;;;13.40;7.30;;;;;;;8.01;100.00;99401.26;214972;1285;138997;-88
2023/04/01 17:08:58;;;;;;;14.40;7.30;;;;;;;7.92;100.00;99408.73;214745;1285;138857;-88
2023/04/01 17:14:02;;;;;;;13.30;7.10;;;;;;;7.84;100.00;99412.76;214453;1285;138852;-87
2023/04/01 17:19:09;;;;;;;11.50;7.20;;;;;;;7.78;100.00;99421.41;214269;1285;139966;-87
2023/04/01 17:24:37;;;;;;;17.70;7.90;;;;;;;7.68;100.00;99433.39;215609;1288;139096;-88
2023/04/01 17:30:06;;;;;;;12.80;7.70;;;;;;;7.54;100.00;99441.75;214228;1286;139127;-87
2023/04/01 17:35:17;;;;;;;13.10;8.20;;;;;;;7.42;100.00;99445.64;214853;1288;139033;-88
2023/04/01 17:40:30;;;;;;;11.00;6.90;;;;;;;7.35;100.00;99455.05;214064;1285;139323;-87
2023/04/01 17:45:57;;;;;;;14.30;7.90;;;;;;;7.31;100.00;99455.39;214765;1285;111276;-89
2023/04/01 17:51:23;;;;;;;11.10;6.60;;;;;;;7.25;100.00;99464.10;214213;1286;139239;-88
2023/04/01 17:56:39;;;;;;;12.50;6.90;;;;;;;7.20;100.00;99470.31;214675;1285;139232;-89
2023/04/01 18:01:54;;;;;;;13.10;8.00;;;;;;;7.10;100.00;99477.33;214203;1285;139550;-87
2023/04/01 18:07:07;;;;;;;12.00;6.60;;;;;;;7.03;100.00;99482.03;215042;1285;139241;-88
2023/04/01 18:12:16;;;;;;;12.00;6.30;;;;;;;6.90;100.00;99484.96;214125;1285;139619;-89
2023/04/01 18:17:45;;;;;;;11.30;6.40;;;;;;;6.79;100.00;99490.23;214661;1285;139341;-88
2023/04/01 18:22:54;;;;;;;10.30;5.80;;;;;;;6.64;100.00;99498.55;214148;1286;139535;-88
2023/04/01 18:28:33;;;;;;;11.40;6.40;;;;;;;6.52;100.00;99508.73;214788;1287;111453;-88
2023/04/01 18:33:48;;;;;;;12.90;7.70;;;;;;;6.40;100.00;99517.16;214293;1285;138309;-87
2023/04/01 18:38:54;;;;;;;10.90;6.40;;;;;;;6.32;100.00;99523.39;214147;1285;139078;-89
2023/04/01 18:44:29;;;;;;;11.80;5.50;;;;;;;6.22;100.00;99539.02;214953;1285;138897;-87
2023/04/01 18:49:46;;;;;;;9.90;5.60;;;;;;;6.16;100.00;99551.81;214086;1285;139354;-90
2023/04/01 18:55:26;;;;;;;10.10;5.50;;;;;;;6.10;100.00;99560.39;214588;1288;138968;-89
2023/04/01 19:00:55;;;;;;;11.10;5.80;;;;;;;5.99;100.00;99568.27;214078;1285;139478;-89
2023/04/01 19:06:01;;;;;;;10.60;5.50;;;;;;;5.87;100.00;99580.95;214595;1288;138753;-89
2023/04/01 19:11:34;;;;;;;9.40;5.20;;;;;;;5.80;100.00;99586.81;214007;1287;139017;-90
2023/04/01 19:16:50;;;;;;;10.00;5.30;;;;;;;5.75;100.00;99591.09;214581;1288;139023;-89
2023/04/01 19:21:59;;;;;;;28.70;9.60;;;;;;;5.69;100.00;99603.54;214152;1285;138787;-90
2023/04/01 19:27:05;;;;;;;13.60;5.90;;;;;;;5.56;100.00;99612.98;214652;1286;138636;-88
2023/04/01 19:32:34;;;;;;;11.10;5.00;;;;;;;5.44;100.00;99622.02;214076;1285;138684;-89
2023/04/01 19:38:05;;;;;;;17.50;6.90;;;;;;;5.40;100.00;99622.13;214604;1285;139254;-90
2023/04/01 19:43:18;;;;;;;11.80;5.60;;;;;;;5.39;100.00;99625.77;214109;1286;139839;-90
2023/04/01 19:48:39;;;;;;;9.60;4.70;;;;;;;5.36;100.00;99639.50;214609;1289;138646;-89
2023/04/01 19:54:15;;;;;;;11.10;5.80;;;;;;;5.36;100.00;99648.61;214177;1289;138730;-89
2023/04/01 19:59:21;;;;;;;9.40;5.20;;;;;;;5.35;100.00;99656.01;214168;1286;139345;-91
2023/04/01 20:04:36;;;;;;;9.60;5.30;;;;;;;5.34;100.00;99665.82;214902;1288;138775;-90
2023/04/01 20:10:02;;;;;;;9.80;4.90;;;;;;;5.32;100.00;99672.80;214158;1288;138981;-90
2023/04/01 20:15:39;;;;;;;8.80;4.80;;;;;;;5.30;100.00;99681.80;214738;1286;138199;-88
2023/04/01 20:20:41;;;;;;;10.50;5.50;;;;;;;5.25;100.00;99692.44;214087;1286;139721;-89
2023/04/01 20:26:07;;;;;;;12.90;5.10;;;;;;;5.20;100.00;99693.82;214698;1285;138489;-89
2023/04/01 20:31:36;;;;;;;11.00;4.70;;;;;;;5.11;100.00;99698.30;213988;1285;142705;-89
2023/04/01 20:37:12;;;;;;;8.80;5.10;;;;;;;5.06;100.00;99709.04;214582;1285;139194;-89
2023/04/01 20:42:45;;;;;;;11.40;5.80;;;;;;;5.05;100.00;99717.19;213979;1288;138698;-89
2023/04/01 20:48:02;;;;;;;10.70;5.30;;;;;;;5.06;100.00;99722.89;214447;1288;139138;-88
2023/04/01 20:53:16;;;;;;;10.40;5.20;;;;;;;5.06;100.00;99731.62;214157;1286;139151;-88
2023/04/01 20:58:24;;;;;;;13.00;5.80;;;;;;;5.04;100.00;99735.33;214612;1288;138903;-88
2023/04/01 21:03:49;;;;;;;10.10;5.10;;;;;;;4.98;100.00;99739.94;214077;1286;139361;-88
2023/04/01 21:09:12;;;;;;;11.20;6.10;;;;;;;4.93;100.00;99748.96;213991;1288;139649;-88
2023/04/01 21:14:40;;;;;;;16.90;6.60;;;;;;;4.88;100.00;99755.61;214528;1288;138642;-89
2023/04/01 21:19:41;;;;;;;16.30;6.60;;;;;;;4.84;100.00;99762.77;214105;1289;140142;-90
2023/04/01 21:24:52;;;;;;;12.20;6.10;;;;;;;4.77;100.00;99773.89;214631;1288;138760;-87
2023/04/01 21:30:04;;;;;;;15.10;7.30;;;;;;;4.78;100.00;99786.69;214120;1288;140410;-89
2023/04/01 21:35:30;;;;;;;14.00;7.20;;;;;;;4.75;100.00;99793.69;214480;1299;138912;-88
2023/04/01 21:40:46;;;;;;;13.00;7.20;;;;;;;4.75;100.00;99798.70;213986;1285;139513;-89
2023/04/01 21:46:11;;;;;;;14.60;7.60;;;;;;;4.71;100.00;99797.66;214687;1285;106722;-88
2023/04/01 21:51:20;;;;;;;15.10;6.80;;;;;;;4.68;100.00;99801.63;214186;1286;139556;-88
2023/04/01 21:56:51;;;;;;;15.00;7.50;;;;;;;4.67;100.00;99810.56;214554;1286;138776;-86
2023/04/01 22:02:03;;;;;;;16.20;8.10;;;;;;;4.64;100.00;99818.73;214076;1285;139080;-88
2023/04/01 22:07:16;;;;;;;16.30;8.30;;;;;;;4.60;100.00;99824.95;216073;1285;138863;-89
2023/04/01 22:12:43;;;;;;;21.20;8.30;;;;;;;4.57;100.00;99833.20;214120;1285;138766;-87
2023/04/01 22:18:04;;;;;;;16.20;8.00;;;;;;;4.52;100.00;99840.46;214748;1288;138865;-88
2023/04/01 22:23:31;;;;;;;15.10;7.40;;;;;;;4.49;100.00;99844.13;214134;1287;138891;-87
2023/04/01 22:28:46;;;;;;;15.90;7.00;;;;;;;4.48;100.00;99854.15;214779;1286;138822;-87
2023/04/01 22:33:53;;;;;;;14.40;6.90;;;;;;;4.46;100.00;99862.97;214556;1289;138568;-87
2023/04/01 22:38:57;;;;;;;18.10;7.60;;;;;;;4.46;100.00;99870.85;214193;1289;140111;-86
2023/04/01 22:43:57;;;;;;;12.30;6.20;;;;;;;4.43;100.00;99877.21;214556;1286;139915;-86
2023/04/01 22:49:16;;;;;;;14.60;6.60;;;;;;;4.42;100.00;99884.66;214383;1286;139655;-87
2023/04/01 22:54:43;;;;;;;14.60;7.00;;;;;;;4.38;100.00;99892.00;214532;1288;139472;-87
2023/04/01 22:59:57;;;;;;;14.00;6.60;;;;;;;4.34;100.00;99902.71;214129;1288;138823;-87
2023/04/01 23:05:01;;;;;;;12.50;6.00;;;;;;;4.28;100.00;99903.89;214636;1289;139375;-86
2023/04/01 23:10:05;;;;;;;10.40;5.70;;;;;;;4.24;100.00;99906.50;214826;1286;139745;-86
2023/04/01 23:15:12;;;;;;;13.20;5.80;;;;;;;4.22;100.00;99910.58;215185;1289;139246;-88
2023/04/01 23:20:50;;;;;;;11.70;5.80;;;;;;;4.20;100.00;99919.61;214547;1288;139883;-86
2023/04/01 23:26:06;;;;;;;;;;;;;;;4.15;100.00;99918.54;214443;1288;139771;-86
2023/04/01 23:31:28;;;;;;;11.10;5.40;;;;;;;4.11;100.00;99928.85;214077;1286;126257;-85
2023/04/01 23:36:30;;;;;;;11.50;4.90;;;;;;;4.10;100.00;99935.65;214634;1286;138854;-88
2023/04/01 23:41:32;;;;;;;12.00;5.10;;;;;;;4.07;100.00;99941.04;214131;1286;139611;-86
2023/04/01 23:46:34;;;;;;;10.90;4.90;;;;;;;4.01;100.00;99943.27;214606;1286;138742;-88
2023/04/01 23:51:49;;;;;;;12.50;5.90;;;;;;;3.99;100.00;99947.79;214121;1289;138526;-88